sensor_id;sensor_type;location;lat;lon;timestamp;P1;durP1;ratioP1;P2;durP2;ratioP2
3689;SDS011;1861;50.240;8.596;2024-01-30T00:00:42;10.90;;;6.50;;
3689;SDS011;1861;50.240;8.596;2024-01-30T00:03:10;9.30;;;5.90;;
3689;SDS011;1861;50.240;8.596;2024-01-30T00:05:38;7.70;;;5.30;;
3689;SDS011;1861;50.240;8.596;2024-01-30T00:08:06;7.97;;;5.27;;
3689;SDS011;1861;50.240;8.596;2024-01-30T00:10:34;9.27;;;5.80;;
3689;SDS011;1861;50.240;8.596;2024-01-30T00:13:02;7.53;;;5.60;;
3689;SDS011;1861;50.240;8.596;2024-01-30T00:15:31;12.80;;;6.40;;
3689;SDS011;1861;50.240;8.596;2024-01-30T00:18:00;10.97;;;6.03;;
3689;SDS011;1861;50.240;8.596;2024-01-30T00:20:28;8.93;;;5.30;;
3689;SDS011;1861;50.240;8.596;2024-01-30T00:22:56;12.50;;;5.83;;
3689;SDS011;1861;50.240;8.596;2024-01-30T00:25:24;7.00;;;5.60;;
3689;SDS011;1861;50.240;8.596;2024-01-30T00:27:52;11.10;;;5.30;;
3689;SDS011;1861;50.240;8.596;2024-01-30T00:30:21;8.20;;;5.50;;
3689;SDS011;1861;50.240;8.596;2024-01-30T00:32:49;10.40;;;6.07;;
3689;SDS011;1861;50.240;8.596;2024-01-30T00:35:18;7.73;;;5.40;;
3689;SDS011;1861;50.240;8.596;2024-01-30T00:37:48;8.67;;;5.53;;
3689;SDS011;1861;50.240;8.596;2024-01-30T00:40:16;9.50;;;5.23;;
3689;SDS011;1861;50.240;8.596;2024-01-30T00:42:45;10.23;;;6.20;;
3689;SDS011;1861;50.240;8.596;2024-01-30T00:45:13;7.63;;;5.47;;
3689;SDS011;1861;50.240;8.596;2024-01-30T00:47:41;12.93;;;5.90;;
3689;SDS011;1861;50.240;8.596;2024-01-30T00:50:10;8.83;;;6.50;;
3689;SDS011;1861;50.240;8.596;2024-01-30T00:52:40;8.80;;;5.83;;
3689;SDS011;1861;50.240;8.596;2024-01-30T00:55:11;8.90;;;5.00;;
3689;SDS011;1861;50.240;8.596;2024-01-30T00:57:40;8.20;;;5.10;;
3689;SDS011;1861;50.240;8.596;2024-01-30T01:00:12;11.93;;;6.43;;
3689;SDS011;1861;50.240;8.596;2024-01-30T01:02:43;12.10;;;6.80;;
3689;SDS011;1861;50.240;8.596;2024-01-30T01:05:11;8.90;;;5.50;;
3689;SDS011;1861;50.240;8.596;2024-01-30T01:07:40;10.10;;;6.03;;
3689;SDS011;1861;50.240;8.596;2024-01-30T01:10:09;18.43;;;6.00;;
3689;SDS011;1861;50.240;8.596;2024-01-30T01:12:37;7.13;;;5.10;;
3689;SDS011;1861;50.240;8.596;2024-01-30T01:15:06;7.53;;;5.10;;
3689;SDS011;1861;50.240;8.596;2024-01-30T01:17:36;7.00;;;5.33;;
3689;SDS011;1861;50.240;8.596;2024-01-30T01:20:04;7.93;;;5.20;;
3689;SDS011;1861;50.240;8.596;2024-01-30T01:22:34;9.30;;;5.73;;
3689;SDS011;1861;50.240;8.596;2024-01-30T01:25:04;8.37;;;6.10;;
3689;SDS011;1861;50.240;8.596;2024-01-30T01:27:33;8.80;;;5.47;;
3689;SDS011;1861;50.240;8.596;2024-01-30T01:30:07;9.30;;;5.93;;
3689;SDS011;1861;50.240;8.596;2024-01-30T01:32:38;16.43;;;6.57;;
3689;SDS011;1861;50.240;8.596;2024-01-30T01:35:11;10.80;;;5.80;;
3689;SDS011;1861;50.240;8.596;2024-01-30T01:37:39;6.07;;;4.63;;
3689;SDS011;1861;50.240;8.596;2024-01-30T01:40:09;8.73;;;5.60;;
3689;SDS011;1861;50.240;8.596;2024-01-30T01:42:38;7.37;;;5.30;;
3689;SDS011;1861;50.240;8.596;2024-01-30T01:45:06;9.30;;;5.60;;
3689;SDS011;1861;50.240;8.596;2024-01-30T01:47:34;9.97;;;5.77;;
3689;SDS011;1861;50.240;8.596;2024-01-30T01:50:03;11.00;;;5.47;;
3689;SDS011;1861;50.240;8.596;2024-01-30T01:52:32;13.10;;;5.90;;
3689;SDS011;1861;50.240;8.596;2024-01-30T01:55:00;8.83;;;5.20;;
3689;SDS011;1861;50.240;8.596;2024-01-30T01:57:29;8.53;;;5.93;;
3689;SDS011;1861;50.240;8.596;2024-01-30T01:59:58;8.27;;;6.00;;
3689;SDS011;1861;50.240;8.596;2024-01-30T02:02:26;8.00;;;5.33;;
3689;SDS011;1861;50.240;8.596;2024-01-30T02:04:56;6.30;;;5.40;;
3689;SDS011;1861;50.240;8.596;2024-01-30T02:07:25;8.90;;;5.70;;
3689;SDS011;1861;50.240;8.596;2024-01-30T02:09:53;10.03;;;5.57;;
3689;SDS011;1861;50.240;8.596;2024-01-30T02:12:21;7.57;;;5.13;;
3689;SDS011;1861;50.240;8.596;2024-01-30T02:14:51;7.83;;;5.53;;
3689;SDS011;1861;50.240;8.596;2024-01-30T02:17:20;11.40;;;5.87;;
3689;SDS011;1861;50.240;8.596;2024-01-30T02:19:49;8.27;;;5.03;;
3689;SDS011;1861;50.240;8.596;2024-01-30T02:22:19;10.07;;;5.30;;
3689;SDS011;1861;50.240;8.596;2024-01-30T02:24:48;9.70;;;5.53;;
3689;SDS011;1861;50.240;8.596;2024-01-30T02:27:17;7.17;;;5.03;;
3689;SDS011;1861;50.240;8.596;2024-01-30T02:29:45;8.00;;;5.20;;
3689;SDS011;1861;50.240;8.596;2024-01-30T02:32:13;8.40;;;5.50;;
3689;SDS011;1861;50.240;8.596;2024-01-30T02:34:42;11.53;;;5.97;;
3689;SDS011;1861;50.240;8.596;2024-01-30T02:37:10;5.07;;;4.50;;
3689;SDS011;1861;50.240;8.596;2024-01-30T02:39:39;7.10;;;5.33;;
3689;SDS011;1861;50.240;8.596;2024-01-30T02:42:08;10.80;;;4.90;;
3689;SDS011;1861;50.240;8.596;2024-01-30T02:44:36;8.07;;;5.07;;
3689;SDS011;1861;50.240;8.596;2024-01-30T02:47:04;8.53;;;5.40;;
3689;SDS011;1861;50.240;8.596;2024-01-30T02:49:32;7.80;;;5.23;;
3689;SDS011;1861;50.240;8.596;2024-01-30T02:52:00;5.87;;;4.40;;
3689;SDS011;1861;50.240;8.596;2024-01-30T02:54:28;8.00;;;5.47;;
3689;SDS011;1861;50.240;8.596;2024-01-30T02:56:58;7.73;;;5.47;;
3689;SDS011;1861;50.240;8.596;2024-01-30T02:59:26;8.43;;;5.40;;
3689;SDS011;1861;50.240;8.596;2024-01-30T03:01:54;7.23;;;4.90;;
3689;SDS011;1861;50.240;8.596;2024-01-30T03:04:22;8.60;;;5.00;;
3689;SDS011;1861;50.240;8.596;2024-01-30T03:06:51;6.57;;;5.13;;
3689;SDS011;1861;50.240;8.596;2024-01-30T03:09:19;6.87;;;4.93;;
3689;SDS011;1861;50.240;8.596;2024-01-30T03:11:47;10.40;;;5.90;;
3689;SDS011;1861;50.240;8.596;2024-01-30T03:14:17;11.67;;;6.27;;
3689;SDS011;1861;50.240;8.596;2024-01-30T03:16:45;9.43;;;5.33;;
3689;SDS011;1861;50.240;8.596;2024-01-30T03:19:13;8.33;;;5.17;;
3689;SDS011;1861;50.240;8.596;2024-01-30T03:21:42;6.90;;;4.90;;
3689;SDS011;1861;50.240;8.596;2024-01-30T03:24:10;9.27;;;5.30;;
3689;SDS011;1861;50.240;8.596;2024-01-30T03:26:38;6.33;;;4.37;;
3689;SDS011;1861;50.240;8.596;2024-01-30T03:29:06;6.47;;;5.07;;
3689;SDS011;1861;50.240;8.596;2024-01-30T03:31:35;7.03;;;5.17;;
3689;SDS011;1861;50.240;8.596;2024-01-30T03:34:03;6.80;;;4.47;;
3689;SDS011;1861;50.240;8.596;2024-01-30T03:36:31;7.43;;;5.50;;
3689;SDS011;1861;50.240;8.596;2024-01-30T03:39:01;8.40;;;5.90;;
3689;SDS011;1861;50.240;8.596;2024-01-30T03:41:29;8.90;;;4.33;;
3689;SDS011;1861;50.240;8.596;2024-01-30T03:43:57;8.23;;;5.33;;
3689;SDS011;1861;50.240;8.596;2024-01-30T03:46:26;6.40;;;4.70;;
3689;SDS011;1861;50.240;8.596;2024-01-30T03:48:55;8.00;;;4.70;;
3689;SDS011;1861;50.240;8.596;2024-01-30T03:51:23;7.77;;;4.83;;
3689;SDS011;1861;50.240;8.596;2024-01-30T03:53:51;6.73;;;4.63;;
3689;SDS011;1861;50.240;8.596;2024-01-30T03:56:19;11.20;;;5.67;;
3689;SDS011;1861;50.240;8.596;2024-01-30T03:58:47;6.50;;;4.83;;
3689;SDS011;1861;50.240;8.596;2024-01-30T04:01:15;9.30;;;5.00;;
3689;SDS011;1861;50.240;8.596;2024-01-30T04:03:44;12.10;;;5.43;;
3689;SDS011;1861;50.240;8.596;2024-01-30T04:06:13;7.67;;;5.27;;
3689;SDS011;1861;50.240;8.596;2024-01-30T04:08:41;6.37;;;4.93;;
3689;SDS011;1861;50.240;8.596;2024-01-30T04:11:10;9.13;;;5.33;;
3689;SDS011;1861;50.240;8.596;2024-01-30T04:13:38;8.20;;;5.57;;
3689;SDS011;1861;50.240;8.596;2024-01-30T04:16:06;8.70;;;5.40;;
3689;SDS011;1861;50.240;8.596;2024-01-30T04:18:34;13.20;;;5.70;;
3689;SDS011;1861;50.240;8.596;2024-01-30T04:21:03;8.70;;;4.70;;
3689;SDS011;1861;50.240;8.596;2024-01-30T04:23:32;6.03;;;4.90;;
3689;SDS011;1861;50.240;8.596;2024-01-30T04:26:00;9.10;;;5.53;;
3689;SDS011;1861;50.240;8.596;2024-01-30T04:28:29;7.90;;;5.23;;
3689;SDS011;1861;50.240;8.596;2024-01-30T04:30:57;11.03;;;5.67;;
3689;SDS011;1861;50.240;8.596;2024-01-30T04:33:25;9.10;;;5.60;;
3689;SDS011;1861;50.240;8.596;2024-01-30T04:35:53;9.37;;;5.80;;
3689;SDS011;1861;50.240;8.596;2024-01-30T04:38:22;8.63;;;5.90;;
3689;SDS011;1861;50.240;8.596;2024-01-30T04:40:51;11.23;;;6.20;;
3689;SDS011;1861;50.240;8.596;2024-01-30T04:43:19;8.60;;;5.80;;
3689;SDS011;1861;50.240;8.596;2024-01-30T04:45:48;7.80;;;5.93;;
3689;SDS011;1861;50.240;8.596;2024-01-30T04:48:17;6.90;;;4.80;;
3689;SDS011;1861;50.240;8.596;2024-01-30T04:50:45;9.43;;;5.50;;
3689;SDS011;1861;50.240;8.596;2024-01-30T04:53:13;8.90;;;5.97;;
3689;SDS011;1861;50.240;8.596;2024-01-30T04:55:41;13.63;;;6.77;;
3689;SDS011;1861;50.240;8.596;2024-01-30T04:58:10;10.30;;;6.27;;
3689;SDS011;1861;50.240;8.596;2024-01-30T05:00:39;11.70;;;6.37;;
3689;SDS011;1861;50.240;8.596;2024-01-30T05:03:07;9.00;;;5.83;;
3689;SDS011;1861;50.240;8.596;2024-01-30T05:05:35;7.40;;;6.07;;
3689;SDS011;1861;50.240;8.596;2024-01-30T05:08:03;10.63;;;5.90;;
3689;SDS011;1861;50.240;8.596;2024-01-30T05:10:32;12.10;;;6.50;;
3689;SDS011;1861;50.240;8.596;2024-01-30T05:13:00;11.03;;;6.67;;
3689;SDS011;1861;50.240;8.596;2024-01-30T05:15:30;10.53;;;6.90;;
3689;SDS011;1861;50.240;8.596;2024-01-30T05:17:58;12.80;;;6.30;;
3689;SDS011;1861;50.240;8.596;2024-01-30T05:20:26;14.70;;;8.00;;
3689;SDS011;1861;50.240;8.596;2024-01-30T05:22:55;10.90;;;7.20;;
3689;SDS011;1861;50.240;8.596;2024-01-30T05:25:23;9.47;;;7.17;;
3689;SDS011;1861;50.240;8.596;2024-01-30T05:27:51;9.43;;;7.33;;
3689;SDS011;1861;50.240;8.596;2024-01-30T05:30:19;12.83;;;7.60;;
3689;SDS011;1861;50.240;8.596;2024-01-30T05:32:49;12.07;;;6.60;;
3689;SDS011;1861;50.240;8.596;2024-01-30T05:35:17;9.93;;;7.30;;
3689;SDS011;1861;50.240;8.596;2024-01-30T05:37:47;11.83;;;7.30;;
3689;SDS011;1861;50.240;8.596;2024-01-30T05:40:16;10.90;;;6.53;;
3689;SDS011;1861;50.240;8.596;2024-01-30T05:42:44;10.40;;;6.87;;
3689;SDS011;1861;50.240;8.596;2024-01-30T05:45:13;9.20;;;7.00;;
3689;SDS011;1861;50.240;8.596;2024-01-30T05:47:41;12.00;;;7.00;;
3689;SDS011;1861;50.240;8.596;2024-01-30T05:50:10;13.67;;;7.20;;
3689;SDS011;1861;50.240;8.596;2024-01-30T05:52:39;13.17;;;7.57;;
3689;SDS011;1861;50.240;8.596;2024-01-30T05:55:07;15.53;;;7.60;;
3689;SDS011;1861;50.240;8.596;2024-01-30T05:57:36;11.53;;;7.90;;
3689;SDS011;1861;50.240;8.596;2024-01-30T06:00:05;11.83;;;6.50;;
3689;SDS011;1861;50.240;8.596;2024-01-30T06:02:34;10.07;;;7.27;;
3689;SDS011;1861;50.240;8.596;2024-01-30T06:05:02;10.47;;;6.93;;
3689;SDS011;1861;50.240;8.596;2024-01-30T06:07:32;10.00;;;7.07;;
3689;SDS011;1861;50.240;8.596;2024-01-30T06:10:03;11.50;;;7.33;;
3689;SDS011;1861;50.240;8.596;2024-01-30T06:12:32;12.80;;;7.50;;
3689;SDS011;1861;50.240;8.596;2024-01-30T06:15:00;12.53;;;6.80;;
3689;SDS011;1861;50.240;8.596;2024-01-30T06:17:28;13.07;;;8.00;;
3689;SDS011;1861;50.240;8.596;2024-01-30T06:19:56;13.93;;;8.03;;
3689;SDS011;1861;50.240;8.596;2024-01-30T06:22:25;10.00;;;7.13;;
3689;SDS011;1861;50.240;8.596;2024-01-30T06:24:54;11.30;;;7.13;;
3689;SDS011;1861;50.240;8.596;2024-01-30T06:27:22;13.73;;;8.33;;
3689;SDS011;1861;50.240;8.596;2024-01-30T06:29:50;12.90;;;7.30;;
3689;SDS011;1861;50.240;8.596;2024-01-30T06:32:19;15.83;;;7.50;;
3689;SDS011;1861;50.240;8.596;2024-01-30T06:34:47;14.20;;;7.70;;
3689;SDS011;1861;50.240;8.596;2024-01-30T06:37:15;17.03;;;9.10;;
3689;SDS011;1861;50.240;8.596;2024-01-30T06:39:43;15.00;;;8.57;;
3689;SDS011;1861;50.240;8.596;2024-01-30T06:42:12;14.40;;;8.03;;
3689;SDS011;1861;50.240;8.596;2024-01-30T06:44:41;12.40;;;7.87;;
3689;SDS011;1861;50.240;8.596;2024-01-30T06:47:09;13.97;;;8.00;;
3689;SDS011;1861;50.240;8.596;2024-01-30T06:49:37;12.50;;;7.67;;
3689;SDS011;1861;50.240;8.596;2024-01-30T06:52:06;13.17;;;8.20;;
3689;SDS011;1861;50.240;8.596;2024-01-30T06:54:34;15.63;;;7.20;;
3689;SDS011;1861;50.240;8.596;2024-01-30T06:57:03;13.77;;;8.60;;
3689;SDS011;1861;50.240;8.596;2024-01-30T06:59:34;19.70;;;9.23;;
3689;SDS011;1861;50.240;8.596;2024-01-30T07:02:02;12.77;;;8.03;;
3689;SDS011;1861;50.240;8.596;2024-01-30T07:04:31;14.17;;;8.63;;
3689;SDS011;1861;50.240;8.596;2024-01-30T07:06:59;13.47;;;9.20;;
3689;SDS011;1861;50.240;8.596;2024-01-30T07:09:28;17.03;;;9.97;;
3689;SDS011;1861;50.240;8.596;2024-01-30T07:11:57;15.83;;;9.40;;
3689;SDS011;1861;50.240;8.596;2024-01-30T07:14:25;19.10;;;10.40;;
3689;SDS011;1861;50.240;8.596;2024-01-30T07:16:55;19.00;;;9.97;;
3689;SDS011;1861;50.240;8.596;2024-01-30T07:19:23;17.60;;;10.70;;
3689;SDS011;1861;50.240;8.596;2024-01-30T07:21:51;18.83;;;11.03;;
3689;SDS011;1861;50.240;8.596;2024-01-30T07:24:19;14.37;;;9.20;;
3689;SDS011;1861;50.240;8.596;2024-01-30T07:26:47;15.00;;;9.13;;
3689;SDS011;1861;50.240;8.596;2024-01-30T07:29:15;16.77;;;9.70;;
3689;SDS011;1861;50.240;8.596;2024-01-30T07:31:44;14.33;;;9.33;;
3689;SDS011;1861;50.240;8.596;2024-01-30T07:34:13;16.10;;;8.93;;
3689;SDS011;1861;50.240;8.596;2024-01-30T07:36:41;15.47;;;9.80;;
3689;SDS011;1861;50.240;8.596;2024-01-30T07:39:10;15.13;;;9.43;;
3689;SDS011;1861;50.240;8.596;2024-01-30T07:41:38;15.30;;;8.50;;
3689;SDS011;1861;50.240;8.596;2024-01-30T07:44:06;15.93;;;8.30;;
3689;SDS011;1861;50.240;8.596;2024-01-30T07:46:34;17.43;;;8.87;;
3689;SDS011;1861;50.240;8.596;2024-01-30T07:49:02;17.00;;;8.53;;
3689;SDS011;1861;50.240;8.596;2024-01-30T07:51:32;14.57;;;8.50;;
3689;SDS011;1861;50.240;8.596;2024-01-30T07:54:00;15.83;;;9.27;;
3689;SDS011;1861;50.240;8.596;2024-01-30T07:56:28;14.97;;;9.10;;
3689;SDS011;1861;50.240;8.596;2024-01-30T07:58:56;15.93;;;9.83;;
3689;SDS011;1861;50.240;8.596;2024-01-30T08:01:24;15.07;;;9.90;;
3689;SDS011;1861;50.240;8.596;2024-01-30T08:03:52;21.97;;;9.30;;
3689;SDS011;1861;50.240;8.596;2024-01-30T08:06:21;15.33;;;9.63;;
3689;SDS011;1861;50.240;8.596;2024-01-30T08:08:50;17.10;;;8.90;;
3689;SDS011;1861;50.240;8.596;2024-01-30T08:11:20;17.10;;;10.20;;
3689;SDS011;1861;50.240;8.596;2024-01-30T08:13:52;15.97;;;8.80;;
3689;SDS011;1861;50.240;8.596;2024-01-30T08:16:20;13.70;;;9.33;;
3689;SDS011;1861;50.240;8.596;2024-01-30T08:18:48;16.70;;;10.23;;
3689;SDS011;1861;50.240;8.596;2024-01-30T08:21:16;13.87;;;8.80;;
3689;SDS011;1861;50.240;8.596;2024-01-30T08:23:44;14.83;;;8.83;;
3689;SDS011;1861;50.240;8.596;2024-01-30T08:26:14;18.40;;;9.60;;
3689;SDS011;1861;50.240;8.596;2024-01-30T08:28:42;15.83;;;9.30;;
3689;SDS011;1861;50.240;8.596;2024-01-30T08:31:10;15.27;;;9.50;;
3689;SDS011;1861;50.240;8.596;2024-01-30T08:33:39;13.53;;;9.27;;
3689;SDS011;1861;50.240;8.596;2024-01-30T08:36:09;13.23;;;8.67;;
3689;SDS011;1861;50.240;8.596;2024-01-30T08:38:37;23.70;;;9.70;;
3689;SDS011;1861;50.240;8.596;2024-01-30T08:41:06;17.40;;;9.77;;
3689;SDS011;1861;50.240;8.596;2024-01-30T08:43:36;17.00;;;9.70;;
3689;SDS011;1861;50.240;8.596;2024-01-30T08:46:04;19.23;;;10.03;;
3689;SDS011;1861;50.240;8.596;2024-01-30T08:48:33;12.67;;;8.67;;
3689;SDS011;1861;50.240;8.596;2024-01-30T08:51:01;15.20;;;9.03;;
3689;SDS011;1861;50.240;8.596;2024-01-30T08:53:29;15.77;;;9.83;;
3689;SDS011;1861;50.240;8.596;2024-01-30T08:55:57;16.43;;;9.50;;
3689;SDS011;1861;50.240;8.596;2024-01-30T08:58:25;13.43;;;9.60;;
3689;SDS011;1861;50.240;8.596;2024-01-30T09:00:55;13.30;;;9.23;;
3689;SDS011;1861;50.240;8.596;2024-01-30T09:03:23;15.17;;;8.83;;
3689;SDS011;1861;50.240;8.596;2024-01-30T09:05:52;15.90;;;9.63;;
3689;SDS011;1861;50.240;8.596;2024-01-30T09:08:20;14.37;;;9.60;;
3689;SDS011;1861;50.240;8.596;2024-01-30T09:10:48;17.60;;;10.57;;
3689;SDS011;1861;50.240;8.596;2024-01-30T09:13:17;15.50;;;10.53;;
3689;SDS011;1861;50.240;8.596;2024-01-30T09:15:46;16.53;;;10.10;;
3689;SDS011;1861;50.240;8.596;2024-01-30T09:18:15;18.60;;;10.47;;
3689;SDS011;1861;50.240;8.596;2024-01-30T09:20:44;14.37;;;9.27;;
3689;SDS011;1861;50.240;8.596;2024-01-30T09:23:14;20.53;;;10.77;;
3689;SDS011;1861;50.240;8.596;2024-01-30T09:25:43;18.73;;;10.63;;
3689;SDS011;1861;50.240;8.596;2024-01-30T09:28:13;18.60;;;10.50;;
3689;SDS011;1861;50.240;8.596;2024-01-30T09:30:41;20.23;;;10.73;;
3689;SDS011;1861;50.240;8.596;2024-01-30T09:33:09;20.17;;;10.10;;
3689;SDS011;1861;50.240;8.596;2024-01-30T09:35:38;19.30;;;11.00;;
3689;SDS011;1861;50.240;8.596;2024-01-30T09:38:07;18.23;;;10.93;;
3689;SDS011;1861;50.240;8.596;2024-01-30T09:40:35;14.10;;;9.47;;
3689;SDS011;1861;50.240;8.596;2024-01-30T09:43:03;14.83;;;9.87;;
3689;SDS011;1861;50.240;8.596;2024-01-30T09:45:32;22.83;;;10.10;;
3689;SDS011;1861;50.240;8.596;2024-01-30T09:48:00;21.53;;;10.00;;
3689;SDS011;1861;50.240;8.596;2024-01-30T09:50:30;19.30;;;9.93;;
3689;SDS011;1861;50.240;8.596;2024-01-30T09:53:00;15.63;;;10.00;;
3689;SDS011;1861;50.240;8.596;2024-01-30T09:55:29;18.20;;;10.33;;
3689;SDS011;1861;50.240;8.596;2024-01-30T09:57:57;17.07;;;11.20;;
3689;SDS011;1861;50.240;8.596;2024-01-30T10:00:26;15.90;;;10.17;;
3689;SDS011;1861;50.240;8.596;2024-01-30T10:02:55;16.83;;;10.00;;
3689;SDS011;1861;50.240;8.596;2024-01-30T10:05:23;25.30;;;10.83;;
3689;SDS011;1861;50.240;8.596;2024-01-30T10:07:55;17.93;;;10.33;;
3689;SDS011;1861;50.240;8.596;2024-01-30T10:10:26;16.63;;;9.40;;
3689;SDS011;1861;50.240;8.596;2024-01-30T10:12:54;13.93;;;9.73;;
3689;SDS011;1861;50.240;8.596;2024-01-30T10:15:22;14.33;;;9.47;;
3689;SDS011;1861;50.240;8.596;2024-01-30T10:17:51;16.83;;;9.73;;
3689;SDS011;1861;50.240;8.596;2024-01-30T10:20:19;17.50;;;9.73;;
3689;SDS011;1861;50.240;8.596;2024-01-30T10:22:49;14.07;;;9.20;;
3689;SDS011;1861;50.240;8.596;2024-01-30T10:25:17;18.77;;;10.60;;
3689;SDS011;1861;50.240;8.596;2024-01-30T10:27:47;14.37;;;10.20;;
3689;SDS011;1861;50.240;8.596;2024-01-30T10:30:20;15.80;;;10.17;;
3689;SDS011;1861;50.240;8.596;2024-01-30T10:32:49;14.43;;;10.13;;
3689;SDS011;1861;50.240;8.596;2024-01-30T10:35:18;20.33;;;10.97;;
3689;SDS011;1861;50.240;8.596;2024-01-30T10:37:47;16.67;;;10.10;;
3689;SDS011;1861;50.240;8.596;2024-01-30T10:40:15;16.60;;;10.40;;
3689;SDS011;1861;50.240;8.596;2024-01-30T10:42:44;18.70;;;10.83;;
3689;SDS011;1861;50.240;8.596;2024-01-30T10:45:14;18.87;;;10.17;;
3689;SDS011;1861;50.240;8.596;2024-01-30T10:47:43;19.00;;;11.00;;
3689;SDS011;1861;50.240;8.596;2024-01-30T10:50:16;16.60;;;10.23;;
3689;SDS011;1861;50.240;8.596;2024-01-30T10:52:45;17.77;;;10.70;;
3689;SDS011;1861;50.240;8.596;2024-01-30T10:55:14;13.80;;;9.83;;
3689;SDS011;1861;50.240;8.596;2024-01-30T10:57:44;17.20;;;10.80;;
3689;SDS011;1861;50.240;8.596;2024-01-30T11:00:13;18.67;;;10.90;;
3689;SDS011;1861;50.240;8.596;2024-01-30T11:02:44;17.93;;;11.30;;
3689;SDS011;1861;50.240;8.596;2024-01-30T11:05:13;18.63;;;10.70;;
3689;SDS011;1861;50.240;8.596;2024-01-30T11:07:42;16.73;;;10.43;;
3689;SDS011;1861;50.240;8.596;2024-01-30T11:10:11;22.40;;;10.70;;
3689;SDS011;1861;50.240;8.596;2024-01-30T11:12:42;18.30;;;10.47;;
3689;SDS011;1861;50.240;8.596;2024-01-30T11:15:13;19.23;;;10.70;;
3689;SDS011;1861;50.240;8.596;2024-01-30T11:17:44;14.50;;;9.80;;
3689;SDS011;1861;50.240;8.596;2024-01-30T11:20:19;14.80;;;9.97;;
3689;SDS011;1861;50.240;8.596;2024-01-30T11:22:49;15.40;;;10.70;;
3689;SDS011;1861;50.240;8.596;2024-01-30T11:25:19;18.03;;;10.20;;
3689;SDS011;1861;50.240;8.596;2024-01-30T11:27:49;16.30;;;10.40;;
3689;SDS011;1861;50.240;8.596;2024-01-30T11:30:21;15.90;;;10.70;;
3689;SDS011;1861;50.240;8.596;2024-01-30T11:33:01;18.30;;;12.10;;
3689;SDS011;1861;50.240;8.596;2024-01-30T11:35:33;16.33;;;11.00;;
3689;SDS011;1861;50.240;8.596;2024-01-30T11:38:02;17.80;;;10.23;;
3689;SDS011;1861;50.240;8.596;2024-01-30T11:40:32;17.03;;;11.03;;
3689;SDS011;1861;50.240;8.596;2024-01-30T11:43:01;17.03;;;10.60;;
3689;SDS011;1861;50.240;8.596;2024-01-30T11:45:32;17.13;;;11.50;;
3689;SDS011;1861;50.240;8.596;2024-01-30T11:48:03;15.43;;;9.60;;
3689;SDS011;1861;50.240;8.596;2024-01-30T11:50:34;20.80;;;11.70;;
3689;SDS011;1861;50.240;8.596;2024-01-30T11:53:03;17.27;;;10.83;;
3689;SDS011;1861;50.240;8.596;2024-01-30T11:55:33;18.37;;;10.67;;
3689;SDS011;1861;50.240;8.596;2024-01-30T11:58:03;16.63;;;9.93;;
3689;SDS011;1861;50.240;8.596;2024-01-30T12:00:32;19.40;;;11.00;;
3689;SDS011;1861;50.240;8.596;2024-01-30T12:03:01;16.83;;;10.93;;
3689;SDS011;1861;50.240;8.596;2024-01-30T12:05:33;24.27;;;11.00;;
3689;SDS011;1861;50.240;8.596;2024-01-30T12:08:03;14.60;;;10.00;;
3689;SDS011;1861;50.240;8.596;2024-01-30T12:10:32;19.80;;;10.60;;
3689;SDS011;1861;50.240;8.596;2024-01-30T12:13:01;20.70;;;10.77;;
3689;SDS011;1861;50.240;8.596;2024-01-30T12:15:29;18.70;;;10.90;;
3689;SDS011;1861;50.240;8.596;2024-01-30T12:18:06;20.27;;;10.90;;
3689;SDS011;1861;50.240;8.596;2024-01-30T12:20:35;17.70;;;10.20;;
3689;SDS011;1861;50.240;8.596;2024-01-30T12:23:03;17.37;;;10.30;;
3689;SDS011;1861;50.240;8.596;2024-01-30T12:25:32;15.80;;;11.00;;
3689;SDS011;1861;50.240;8.596;2024-01-30T12:28:01;17.97;;;10.87;;
3689;SDS011;1861;50.240;8.596;2024-01-30T12:30:30;17.33;;;10.60;;
3689;SDS011;1861;50.240;8.596;2024-01-30T12:32:58;20.83;;;9.53;;
3689;SDS011;1861;50.240;8.596;2024-01-30T12:35:29;17.23;;;10.57;;
3689;SDS011;1861;50.240;8.596;2024-01-30T12:37:59;17.53;;;9.83;;
3689;SDS011;1861;50.240;8.596;2024-01-30T12:40:27;19.20;;;10.90;;
3689;SDS011;1861;50.240;8.596;2024-01-30T12:42:56;16.30;;;10.40;;
3689;SDS011;1861;50.240;8.596;2024-01-30T12:45:24;17.00;;;9.83;;
3689;SDS011;1861;50.240;8.596;2024-01-30T12:47:53;14.07;;;9.67;;
3689;SDS011;1861;50.240;8.596;2024-01-30T12:50:21;18.87;;;10.10;;
3689;SDS011;1861;50.240;8.596;2024-01-30T12:52:51;16.53;;;9.97;;
3689;SDS011;1861;50.240;8.596;2024-01-30T12:55:20;15.67;;;9.30;;
3689;SDS011;1861;50.240;8.596;2024-01-30T12:57:48;15.03;;;10.00;;
3689;SDS011;1861;50.240;8.596;2024-01-30T13:00:16;18.03;;;9.70;;
3689;SDS011;1861;50.240;8.596;2024-01-30T13:02:44;17.23;;;9.27;;
3689;SDS011;1861;50.240;8.596;2024-01-30T13:05:13;14.10;;;8.73;;
3689;SDS011;1861;50.240;8.596;2024-01-30T13:07:41;13.50;;;8.43;;
3689;SDS011;1861;50.240;8.596;2024-01-30T13:10:11;11.93;;;8.10;;
3689;SDS011;1861;50.240;8.596;2024-01-30T13:12:40;15.23;;;7.93;;
3689;SDS011;1861;50.240;8.596;2024-01-30T13:15:08;13.27;;;8.47;;
3689;SDS011;1861;50.240;8.596;2024-01-30T13:17:38;13.83;;;8.73;;
3689;SDS011;1861;50.240;8.596;2024-01-30T13:20:06;14.10;;;8.60;;
3689;SDS011;1861;50.240;8.596;2024-01-30T13:22:38;16.07;;;8.30;;
3689;SDS011;1861;50.240;8.596;2024-01-30T13:25:06;14.87;;;8.87;;
3689;SDS011;1861;50.240;8.596;2024-01-30T13:27:37;22.77;;;10.57;;
3689;SDS011;1861;50.240;8.596;2024-01-30T13:30:06;20.20;;;8.73;;
3689;SDS011;1861;50.240;8.596;2024-01-30T13:32:36;15.83;;;7.93;;
3689;SDS011;1861;50.240;8.596;2024-01-30T13:35:05;13.27;;;8.30;;
3689;SDS011;1861;50.240;8.596;2024-01-30T13:37:34;15.60;;;8.57;;
3689;SDS011;1861;50.240;8.596;2024-01-30T13:40:03;15.27;;;8.60;;
3689;SDS011;1861;50.240;8.596;2024-01-30T13:42:38;16.10;;;8.70;;
3689;SDS011;1861;50.240;8.596;2024-01-30T13:45:06;10.73;;;7.63;;
3689;SDS011;1861;50.240;8.596;2024-01-30T13:47:37;17.57;;;9.30;;
3689;SDS011;1861;50.240;8.596;2024-01-30T13:50:05;13.23;;;9.17;;
3689;SDS011;1861;50.240;8.596;2024-01-30T13:52:34;14.03;;;8.70;;
3689;SDS011;1861;50.240;8.596;2024-01-30T13:55:10;17.57;;;8.73;;
3689;SDS011;1861;50.240;8.596;2024-01-30T13:57:41;12.70;;;7.60;;
3689;SDS011;1861;50.240;8.596;2024-01-30T14:00:09;11.37;;;8.20;;
3689;SDS011;1861;50.240;8.596;2024-01-30T14:02:42;15.30;;;9.47;;
3689;SDS011;1861;50.240;8.596;2024-01-30T14:05:10;14.07;;;7.73;;
3689;SDS011;1861;50.240;8.596;2024-01-30T14:07:39;17.50;;;8.30;;
3689;SDS011;1861;50.240;8.596;2024-01-30T14:10:09;9.33;;;7.67;;
3689;SDS011;1861;50.240;8.596;2024-01-30T14:12:43;13.03;;;8.20;;
3689;SDS011;1861;50.240;8.596;2024-01-30T14:15:11;13.93;;;8.10;;
3689;SDS011;1861;50.240;8.596;2024-01-30T14:17:53;18.33;;;8.50;;
3689;SDS011;1861;50.240;8.596;2024-01-30T14:20:22;12.37;;;7.97;;
3689;SDS011;1861;50.240;8.596;2024-01-30T14:22:51;15.40;;;8.30;;
3689;SDS011;1861;50.240;8.596;2024-01-30T14:25:19;11.73;;;8.57;;
3689;SDS011;1861;50.240;8.596;2024-01-30T14:27:49;14.03;;;9.17;;
3689;SDS011;1861;50.240;8.596;2024-01-30T14:30:19;18.80;;;10.03;;
3689;SDS011;1861;50.240;8.596;2024-01-30T14:32:48;12.27;;;8.60;;
3689;SDS011;1861;50.240;8.596;2024-01-30T14:35:17;12.73;;;8.03;;
3689;SDS011;1861;50.240;8.596;2024-01-30T14:37:46;16.60;;;9.40;;
3689;SDS011;1861;50.240;8.596;2024-01-30T14:40:14;15.50;;;9.63;;
3689;SDS011;1861;50.240;8.596;2024-01-30T14:42:43;14.90;;;9.40;;
3689;SDS011;1861;50.240;8.596;2024-01-30T14:45:12;18.80;;;10.03;;
3689;SDS011;1861;50.240;8.596;2024-01-30T14:47:41;13.20;;;8.63;;
3689;SDS011;1861;50.240;8.596;2024-01-30T14:50:10;22.57;;;10.43;;
3689;SDS011;1861;50.240;8.596;2024-01-30T14:52:38;21.13;;;10.20;;
3689;SDS011;1861;50.240;8.596;2024-01-30T14:55:08;15.67;;;9.60;;
3689;SDS011;1861;50.240;8.596;2024-01-30T14:57:36;16.90;;;10.50;;
3689;SDS011;1861;50.240;8.596;2024-01-30T15:00:05;16.57;;;9.97;;
3689;SDS011;1861;50.240;8.596;2024-01-30T15:02:36;20.30;;;10.30;;
3689;SDS011;1861;50.240;8.596;2024-01-30T15:05:05;19.30;;;11.07;;
3689;SDS011;1861;50.240;8.596;2024-01-30T15:07:33;16.57;;;10.37;;
3689;SDS011;1861;50.240;8.596;2024-01-30T15:10:06;15.07;;;10.07;;
3689;SDS011;1861;50.240;8.596;2024-01-30T15:12:36;18.93;;;11.20;;